Time;durP1;ratioP1;P1;durP2;ratioP2;P2;SDS_P1;SDS_P2;PMS_P1;PMS_P2;Temp;Humidity;BMP_temperature;BMP_pressure;BME280_temperature;BME280_humidity;BME280_pressure;Samples;Min_cycle;Max_cycle;Signal;HPM_P1;HPM_P2
2022/01/15 00:00:24;;;;;;;86.95;32.72;;;2.60;99.90;;;;;;4977197;28;20057;-79
2022/01/15 00:02:50;;;;;;;129.98;32.03;;;2.50;99.90;;;;;;4983112;28;20026;-79
2022/01/15 00:05:16;;;;;;;103.95;32.10;;;2.60;99.90;;;;;;4976668;28;20030;-79
2022/01/15 00:07:44;;;;;;;77.65;31.70;;;2.60;99.90;;;;;;4984661;28;20096;-78
2022/01/15 00:10:10;;;;;;;185.38;32.88;;;2.50;99.90;;;;;;4984022;28;20048;-80
2022/01/15 00:12:40;;;;;;;153.63;31.55;;;2.50;99.90;;;;;;4979764;28;20660;-79
2022/01/15 00:15:12;;;;;;;266.67;35.13;;;2.50;99.90;;;;;;4979285;28;20092;-79
2022/01/15 00:20:10;;;;;;;111.03;32.33;;;2.50;99.90;;;;;;4985277;28;20618;-79
2022/01/15 00:22:35;;;;;;;227.82;35.40;;;2.50;99.90;;;;;;4988428;28;20548;-79
2022/01/15 00:25:01;;;;;;;91.00;30.38;;;2.50;99.90;;;;;;4991227;28;20030;-79
2022/01/15 00:27:27;;;;;;;93.30;32.38;;;2.50;99.90;;;;;;4985593;28;20022;-79
2022/01/15 00:29:52;;;;;;;106.28;33.58;;;2.50;99.90;;;;;;4982952;28;20085;-79
2022/01/15 00:32:18;;;;;;;80.32;31.70;;;2.50;99.90;;;;;;4983524;28;20026;-79
2022/01/15 00:34:43;;;;;;;97.40;32.53;;;2.50;99.90;;;;;;4981673;28;20458;-79
2022/01/15 00:37:09;;;;;;;212.23;33.40;;;2.50;99.90;;;;;;4979544;28;20026;-79
2022/01/15 00:39:35;;;;;;;85.82;30.75;;;2.50;99.90;;;;;;4981472;28;20522;-79
2022/01/15 00:42:00;;;;;;;178.20;31.83;;;2.50;99.90;;;;;;4978767;28;20081;-79
2022/01/15 00:44:26;;;;;;;93.63;31.85;;;2.50;99.90;;;;;;4974667;28;20097;-79
2022/01/15 00:46:52;;;;;;;95.00;34.55;;;2.50;99.90;;;;;;4982182;28;20491;-79
2022/01/15 00:49:17;;;;;;;113.22;33.85;;;2.50;99.90;;;;;;4981138;28;20061;-78
2022/01/15 00:51:43;;;;;;;206.70;33.20;;;2.50;99.90;;;;;;4988230;28;20072;-79
2022/01/15 00:54:08;;;;;;;83.65;31.58;;;2.50;99.90;;;;;;4979762;28;20037;-79
2022/01/15 00:56:34;;;;;;;96.50;34.33;;;2.50;99.90;;;;;;4995071;28;20026;-79
2022/01/15 00:59:00;;;;;;;111.53;33.90;;;2.50;99.90;;;;;;4978928;28;20430;-79
2022/01/15 01:01:25;;;;;;;84.47;31.63;;;2.50;99.90;;;;;;4986354;28;20208;-79
2022/01/15 01:03:51;;;;;;;92.43;32.97;;;2.50;99.90;;;;;;4982945;28;20026;-78
2022/01/15 01:06:17;;;;;;;102.65;32.70;;;2.40;99.90;;;;;;4982217;28;20092;-79
2022/01/15 01:08:43;;;;;;;87.72;30.95;;;2.50;99.90;;;;;;4977648;28;20035;-78
2022/01/15 01:11:14;;;;;;;88.20;31.73;;;2.50;99.90;;;;;;4975502;28;20023;-78
2022/01/15 01:24:11;;;;;;;87.63;32.92;;;2.50;99.90;;;;;;4988388;28;20034;-78
2022/01/15 01:31:59;;;;;;;89.30;32.00;;;2.60;99.90;;;;;;4983485;28;20529;-79
2022/01/15 01:34:28;;;;;;;118.32;33.90;;;2.50;99.90;;;;;;4986197;28;20019;-78
2022/01/15 01:44:40;;;;;;;88.40;32.13;;;2.50;99.90;;;;;;4989881;28;20084;-79
2022/01/15 01:47:15;;;;;;;107.43;32.78;;;2.50;99.90;;;;;;4986452;28;20030;-78
2022/01/15 01:49:42;;;;;;;90.43;30.95;;;2.50;99.90;;;;;;4981376;28;20031;-78
2022/01/15 01:52:09;;;;;;;94.03;33.70;;;2.50;99.90;;;;;;4975825;28;20471;-78
2022/01/15 01:54:35;;;;;;;91.97;30.85;;;2.50;99.90;;;;;;4980011;28;20034;-78
2022/01/15 01:57:01;;;;;;;82.50;30.40;;;2.50;99.90;;;;;;4983844;28;20042;-78
2022/01/15 01:59:27;;;;;;;90.10;33.03;;;2.50;99.90;;;;;;4979824;28;20026;-78
2022/01/15 02:01:53;;;;;;;80.60;31.40;;;2.50;99.90;;;;;;4985039;28;20414;-78
2022/01/15 02:04:19;;;;;;;88.85;31.70;;;2.50;99.90;;;;;;4984596;28;20038;-79
2022/01/15 02:06:44;;;;;;;80.97;31.30;;;2.50;99.90;;;;;;4985013;28;20030;-79
2022/01/15 02:09:10;;;;;;;88.63;29.73;;;2.50;99.90;;;;;;4983879;28;20471;-78
2022/01/15 02:11:39;;;;;;;79.75;31.63;;;2.50;99.90;;;;;;4983658;28;20745;-78
2022/01/15 02:14:05;;;;;;;78.47;30.02;;;2.60;99.90;;;;;;4987541;28;20038;-78
2022/01/15 02:16:30;;;;;;;90.38;29.63;;;2.60;99.90;;;;;;4980330;28;20380;-78
2022/01/15 02:18:56;;;;;;;80.82;31.63;;;2.50;99.90;;;;;;4974528;28;20037;-78
2022/01/15 02:24:06;;;;;;;86.20;31.65;;;2.60;99.90;;;;;;4983152;28;20117;-78
2022/01/15 02:26:34;;;;;;;76.82;29.80;;;2.50;99.90;;;;;;4976477;28;20481;-78
2022/01/15 02:29:01;;;;;;;103.22;29.73;;;2.50;99.90;;;;;;4981617;28;20521;-78
2022/01/15 02:31:29;;;;;;;106.35;32.53;;;2.50;99.90;;;;;;4983613;28;20375;-79
2022/01/15 02:33:56;;;;;;;93.55;31.42;;;2.50;99.90;;;;;;4983736;28;20030;-78
2022/01/15 02:36:25;;;;;;;83.35;30.83;;;2.50;99.90;;;;;;4978815;28;20563;-78
2022/01/15 02:38:52;;;;;;;79.65;30.17;;;2.50;99.90;;;;;;4985902;28;20541;-78
2022/01/15 02:41:29;;;;;;;85.25;30.38;;;2.50;99.90;;;;;;4978848;28;20093;-79
2022/01/15 02:43:56;;;;;;;72.45;29.13;;;2.50;99.90;;;;;;4980348;28;20062;-79
2022/01/15 02:46:34;;;;;;;81.93;31.13;;;2.50;99.90;;;;;;4979188;28;20482;-79
2022/01/15 02:49:05;;;;;;;84.25;31.08;;;2.50;99.90;;;;;;4979485;28;20065;-78
2022/01/15 02:51:34;;;;;;;91.22;32.05;;;2.40;99.90;;;;;;4982761;28;20034;-78
2022/01/15 02:54:01;;;;;;;94.72;31.83;;;2.50;99.90;;;;;;4975494;28;20147;-78
2022/01/15 02:56:34;;;;;;;88.03;32.53;;;2.50;99.90;;;;;;4980939;28;20030;-79
2022/01/15 02:59:00;;;;;;;104.63;32.90;;;2.40;99.90;;;;;;4984090;28;20402;-78
2022/01/15 03:01:26;;;;;;;97.78;33.80;;;2.40;99.90;;;;;;4983889;28;20113;-78
2022/01/15 03:03:52;;;;;;;88.47;31.65;;;2.50;99.90;;;;;;4981829;28;20129;-78
2022/01/15 03:06:19;;;;;;;91.38;31.25;;;2.50;99.90;;;;;;4983186;28;20262;-78
2022/01/15 03:08:46;;;;;;;80.25;30.75;;;2.50;99.90;;;;;;4980154;28;20027;-78
2022/01/15 03:11:12;;;;;;;86.47;30.70;;;2.50;99.90;;;;;;4974071;28;20049;-78
2022/01/15 03:13:39;;;;;;;80.85;31.45;;;2.50;99.90;;;;;;4980778;28;20129;-78
2022/01/15 03:16:09;;;;;;;90.80;31.88;;;2.50;99.90;;;;;;4982490;28;20048;-78
2022/01/15 03:18:35;;;;;;;77.90;30.15;;;2.50;99.90;;;;;;4976352;28;20035;-78
2022/01/15 03:21:01;;;;;;;85.47;31.27;;;2.50;99.90;;;;;;4977655;28;20030;-78
2022/01/15 03:23:26;;;;;;;79.78;31.50;;;2.50;99.90;;;;;;4995845;28;20038;-78
2022/01/15 03:25:52;;;;;;;75.70;29.90;;;2.50;99.90;;;;;;4985063;28;20092;-78
2022/01/15 03:28:18;;;;;;;79.15;30.33;;;2.50;99.90;;;;;;4981546;28;20120;-78
2022/01/15 03:30:43;;;;;;;86.43;31.42;;;2.50;99.90;;;;;;4982011;28;20034;-78
2022/01/15 03:33:10;;;;;;;78.78;30.40;;;2.50;99.90;;;;;;4979079;28;20044;-78
2022/01/15 03:35:38;;;;;;;83.75;32.42;;;2.50;99.90;;;;;;4985113;28;20037;-79
2022/01/15 03:38:06;;;;;;;82.43;32.15;;;2.50;99.90;;;;;;4977749;28;20042;-78
2022/01/15 03:40:32;;;;;;;79.53;30.42;;;2.50;99.90;;;;;;4982770;28;20042;-78
2022/01/15 03:42:59;;;;;;;82.85;31.02;;;2.50;99.90;;;;;;4982526;28;20045;-78
2022/01/15 03:45:24;;;;;;;82.75;30.73;;;2.50;99.90;;;;;;4983042;28;20038;-78
2022/01/15 03:47:50;;;;;;;74.35;29.80;;;2.50;99.90;;;;;;4981052;28;20554;-79
2022/01/15 03:50:17;;;;;;;80.32;32.15;;;2.50;99.90;;;;;;4982046;28;20037;-78
2022/01/15 03:52:43;;;;;;;75.68;29.73;;;2.50;99.90;;;;;;4979088;28;20042;-78
2022/01/15 03:55:10;;;;;;;77.63;29.77;;;2.40;99.90;;;;;;4975394;28;20165;-78
2022/01/15 03:57:36;;;;;;;80.72;31.08;;;2.50;99.90;;;;;;4974009;28;20030;-78
2022/01/15 04:00:08;;;;;;;78.53;30.50;;;2.50;99.90;;;;;;4985516;28;20030;-78
2022/01/15 04:02:34;;;;;;;74.80;28.35;;;2.50;99.90;;;;;;4979647;28;20038;-78
2022/01/15 04:04:59;;;;;;;75.03;29.92;;;2.50;99.90;;;;;;4982056;28;20034;-78
2022/01/15 04:07:25;;;;;;;70.90;28.55;;;2.50;99.90;;;;;;4971799;28;20026;-78
2022/01/15 04:09:51;;;;;;;70.88;29.60;;;2.50;99.90;;;;;;4984268;28;20061;-78
2022/01/15 04:12:16;;;;;;;70.68;28.15;;;2.50;99.90;;;;;;4975442;28;20030;-78
2022/01/15 04:14:42;;;;;;;75.82;29.35;;;2.50;99.90;;;;;;4973705;28;20050;-78
2022/01/15 04:17:07;;;;;;;71.15;27.98;;;2.50;99.90;;;;;;4981648;28;20034;-78
2022/01/15 04:19:35;;;;;;;73.57;29.85;;;2.50;99.90;;;;;;4986563;28;20031;-78
2022/01/15 04:22:00;;;;;;;75.75;28.98;;;2.50;99.90;;;;;;4986419;28;20101;-78
2022/01/15 04:24:26;;;;;;;76.35;29.60;;;2.50;99.90;;;;;;4977506;28;20113;-79
2022/01/15 04:26:52;;;;;;;75.78;29.95;;;2.50;99.90;;;;;;4982662;28;20049;-78
2022/01/15 04:29:17;;;;;;;75.97;29.48;;;2.50;99.90;;;;;;4985519;28;20045;-78
2022/01/15 04:31:50;;;;;;;78.78;30.10;;;2.50;99.90;;;;;;4989880;28;20034;-78
2022/01/15 04:34:17;;;;;;;73.25;29.65;;;2.50;99.90;;;;;;4988500;28;20033;-78
2022/01/15 04:36:43;;;;;;;72.63;30.20;;;2.50;99.90;;;;;;4977966;28;20511;-78
2022/01/15 04:39:10;;;;;;;69.82;28.90;;;2.50;99.90;;;;;;4979808;28;20038;-78
2022/01/15 04:41:36;;;;;;;70.22;29.60;;;2.50;99.90;;;;;;4985512;28;20631;-78
2022/01/15 04:44:04;;;;;;;73.90;30.05;;;2.50;99.90;;;;;;4980793;28;20041;-78
2022/01/15 04:46:30;;;;;;;80.13;30.88;;;2.50;99.90;;;;;;4985447;28;20026;-78
2022/01/15 04:48:56;;;;;;;73.72;29.10;;;2.50;99.90;;;;;;4983687;28;20029;-78
2022/01/15 04:51:21;;;;;;;79.18;30.10;;;2.50;99.90;;;;;;4988483;28;20031;-78
2022/01/15 04:53:47;;;;;;;76.13;29.65;;;2.50;99.90;;;;;;4984864;28;20109;-77
2022/01/15 04:56:12;;;;;;;69.53;28.38;;;2.50;99.90;;;;;;4980391;28;20034;-78
2022/01/15 04:58:38;;;;;;;74.28;29.38;;;2.50;99.90;;;;;;4988171;28;20026;-78
2022/01/15 05:01:03;;;;;;;71.35;30.02;;;2.60;99.90;;;;;;4981958;28;20034;-78
2022/01/15 05:03:29;;;;;;;71.10;28.13;;;2.60;99.90;;;;;;4983493;28;20034;-78
2022/01/15 05:05:55;;;;;;;68.25;27.85;;;2.60;99.90;;;;;;4984331;28;20050;-78
2022/01/15 05:08:20;;;;;;;69.35;29.15;;;2.60;99.90;;;;;;4981911;28;20026;-78
2022/01/15 05:10:48;;;;;;;68.78;28.40;;;2.60;99.90;;;;;;4975709;28;20033;-78
2022/01/15 05:13:20;;;;;;;66.28;28.20;;;2.60;99.90;;;;;;4989620;28;20081;-78
2022/01/15 05:15:46;;;;;;;67.00;28.20;;;2.50;99.90;;;;;;4987716;28;20109;-78
2022/01/15 05:18:12;;;;;;;70.55;27.30;;;2.50;99.90;;;;;;4985888;28;20129;-78
2022/01/15 05:20:43;;;;;;;67.03;26.73;;;2.50;99.90;;;;;;4985399;28;20306;-78
2022/01/15 05:23:08;;;;;;;67.30;27.45;;;2.50;99.90;;;;;;4992283;28;20045;-78
2022/01/15 05:25:34;;;;;;;68.90;28.98;;;2.50;99.90;;;;;;4985048;28;20126;-78
2022/01/15 05:28:00;;;;;;;64.40;27.65;;;2.50;99.90;;;;;;4986048;28;20494;-78
2022/01/15 05:30:26;;;;;;;64.03;26.02;;;2.50;99.90;;;;;;4988665;28;20116;-78
2022/01/15 05:32:52;;;;;;;68.88;27.05;;;2.50;99.90;;;;;;4979129;28;20181;-79
2022/01/15 05:35:18;;;;;;;69.32;28.00;;;2.50;99.90;;;;;;4984597;28;20042;-79
2022/01/15 05:37:43;;;;;;;73.97;29.10;;;2.50;99.90;;;;;;4982796;28;20026;-79
2022/01/15 05:40:10;;;;;;;70.95;30.08;;;2.50;99.90;;;;;;4985269;28;20398;-79
2022/01/15 05:42:35;;;;;;;67.53;29.23;;;2.50;99.90;;;;;;4987313;28;20034;-78
2022/01/15 05:45:01;;;;;;;69.60;28.08;;;2.50;99.90;;;;;;4988699;28;20379;-78
2022/01/15 05:47:27;;;;;;;65.28;27.52;;;2.50;99.90;;;;;;4981375;28;20487;-79
2022/01/15 05:49:52;;;;;;;71.82;29.70;;;2.50;99.90;;;;;;4981128;28;20025;-79
2022/01/15 05:52:18;;;;;;;69.13;29.42;;;2.50;99.90;;;;;;4975008;28;20491;-78
2022/01/15 05:54:43;;;;;;;66.20;28.60;;;2.50;99.90;;;;;;4983572;28;20044;-79
2022/01/15 05:57:09;;;;;;;70.10;28.65;;;2.60;99.90;;;;;;4987418;28;20224;-79
2022/01/15 05:59:35;;;;;;;65.68;27.48;;;2.60;99.90;;;;;;4987160;28;20500;-79
2022/01/15 06:02:00;;;;;;;67.40;28.45;;;2.60;99.90;;;;;;4987851;28;20030;-79
2022/01/15 06:04:26;;;;;;;68.55;28.98;;;2.50;99.90;;;;;;4981897;28;20106;-78
2022/01/15 06:06:51;;;;;;;66.10;27.13;;;2.60;99.90;;;;;;4984549;28;20026;-78
2022/01/15 06:09:17;;;;;;;64.65;28.08;;;2.60;99.90;;;;;;4984268;28;20113;-78
2022/01/15 06:11:43;;;;;;;68.43;29.48;;;2.60;99.90;;;;;;4974349;28;20058;-79
2022/01/15 06:14:09;;;;;;;70.63;28.02;;;2.60;99.90;;;;;;4977121;28;20033;-78
2022/01/15 06:16:36;;;;;;;67.30;28.73;;;2.60;99.90;;;;;;4980019;28;20030;-79
2022/01/15 06:19:02;;;;;;;66.20;28.52;;;2.60;99.90;;;;;;4987708;28;20031;-78
2022/01/15 06:21:27;;;;;;;66.00;28.27;;;2.60;99.90;;;;;;4986228;28;20038;-78
2022/01/15 06:23:53;;;;;;;72.40;29.27;;;2.60;99.90;;;;;;4973948;28;20026;-78
2022/01/15 06:26:18;;;;;;;70.07;29.58;;;2.60;99.90;;;;;;4985429;28;20042;-78
2022/01/15 06:28:44;;;;;;;70.28;29.92;;;2.60;99.90;;;;;;4982889;28;20041;-78
2022/01/15 06:31:09;;;;;;;74.95;30.75;;;2.60;99.90;;;;;;4984066;28;20114;-78
2022/01/15 06:33:35;;;;;;;85.95;36.08;;;2.60;99.90;;;;;;4984006;28;20034;-78
2022/01/15 06:36:01;;;;;;;80.75;36.53;;;2.60;99.90;;;;;;4978584;28;20034;-79
2022/01/15 06:38:26;;;;;;;68.55;29.20;;;2.60;99.90;;;;;;4970028;28;20431;-78
2022/01/15 06:40:52;;;;;;;65.95;28.25;;;2.60;99.90;;;;;;4975264;28;20607;-78
2022/01/15 06:43:18;;;;;;;62.30;27.15;;;2.60;99.90;;;;;;4979772;28;20035;-79
2022/01/15 06:45:43;;;;;;;62.85;26.90;;;2.60;99.90;;;;;;4982849;28;20088;-78
2022/01/15 06:48:09;;;;;;;64.50;27.20;;;2.60;99.90;;;;;;4980636;28;20022;-78
2022/01/15 06:50:37;;;;;;;62.97;27.45;;;2.60;99.90;;;;;;4978801;28;20527;-79
2022/01/15 06:53:02;;;;;;;57.50;27.60;;;2.60;99.90;;;;;;4972007;28;20073;-79
2022/01/15 06:55:28;;;;;;;65.53;28.85;;;2.60;99.90;;;;;;4977294;28;20038;-79
2022/01/15 06:57:53;;;;;;;62.90;28.80;;;2.60;99.90;;;;;;4979081;28;21018;-79
2022/01/15 07:00:19;;;;;;;63.10;28.58;;;2.60;99.90;;;;;;4970667;28;20104;-79
2022/01/15 07:02:44;;;;;;;63.15;27.13;;;2.60;99.90;;;;;;4978325;28;20022;-79
2022/01/15 07:05:10;;;;;;;58.78;26.27;;;2.60;99.90;;;;;;4976367;28;20506;-79
2022/01/15 07:07:43;;;;;;;57.70;25.30;;;2.60;99.90;;;;;;4978804;28;20058;-78
2022/01/15 07:10:09;;;;;;;60.63;26.15;;;2.60;99.90;;;;;;4979115;28;20045;-78
2022/01/15 07:12:35;;;;;;;58.33;26.40;;;2.60;99.90;;;;;;4972314;28;20057;-79
2022/01/15 07:15:00;;;;;;;58.70;26.65;;;2.60;99.90;;;;;;4978070;28;20530;-79
2022/01/15 07:17:26;;;;;;;60.72;26.08;;;2.60;99.90;;;;;;4974462;28;20187;-78
2022/01/15 07:19:52;;;;;;;54.30;25.35;;;2.60;99.90;;;;;;4983863;28;20391;-79
2022/01/15 07:22:17;;;;;;;53.67;24.10;;;2.60;99.90;;;;;;4983485;28;20084;-78
2022/01/15 07:24:43;;;;;;;60.67;26.15;;;2.70;99.90;;;;;;4981782;28;20041;-79
2022/01/15 07:27:10;;;;;;;58.35;26.08;;;2.70;99.90;;;;;;4979635;28;20045;-79
2022/01/15 07:29:37;;;;;;;59.88;26.60;;;2.70;99.90;;;;;;4976858;28;20069;-79
2022/01/15 07:32:04;;;;;;;50.75;24.60;;;2.70;99.90;;;;;;4983514;28;20043;-79
2022/01/15 07:34:30;;;;;;;53.25;25.13;;;2.70;99.90;;;;;;4975432;28;20081;-78
2022/01/15 07:36:57;;;;;;;55.05;24.92;;;2.70;99.90;;;;;;4980489;28;20503;-79
2022/01/15 07:39:24;;;;;;;53.50;24.15;;;2.70;99.90;;;;;;4975871;28;20574;-78
2022/01/15 07:41:50;;;;;;;53.22;25.30;;;2.70;99.90;;;;;;4968378;28;20035;-79
2022/01/15 07:44:16;;;;;;;54.08;24.83;;;2.70;99.90;;;;;;4977804;28;20045;-79
2022/01/15 07:46:42;;;;;;;51.88;24.52;;;2.80;99.90;;;;;;4973981;28;20038;-78
2022/01/15 07:49:08;;;;;;;48.10;22.90;;;2.80;99.90;;;;;;4981402;28;20042;-78
2022/01/15 07:51:33;;;;;;;54.22;25.27;;;2.80;99.90;;;;;;4977626;28;20051;-78
2022/01/15 07:53:59;;;;;;;59.33;27.33;;;2.80;99.90;;;;;;4984001;28;20030;-78
2022/01/15 07:56:25;;;;;;;59.72;27.55;;;2.80;99.90;;;;;;4985246;28;20053;-78
2022/01/15 07:58:51;;;;;;;55.20;26.48;;;2.80;99.90;;;;;;4981411;28;20486;-79
2022/01/15 08:01:18;;;;;;;58.75;27.60;;;2.80;99.90;;;;;;4981992;28;20039;-78
2022/01/15 08:03:44;;;;;;;59.33;27.20;;;2.80;99.90;;;;;;4984083;28;20048;-78
2022/01/15 08:06:11;;;;;;;61.70;27.92;;;2.80;99.90;;;;;;4979117;28;20402;-78
2022/01/15 08:08:37;;;;;;;58.55;26.63;;;2.80;99.90;;;;;;4979660;28;20427;-78
2022/01/15 08:11:05;;;;;;;56.80;25.95;;;2.90;99.90;;;;;;4976590;28;20093;-78
2022/01/15 08:13:31;;;;;;;56.67;26.20;;;2.80;99.90;;;;;;4987147;28;20057;-78
2022/01/15 08:15:58;;;;;;;58.78;26.30;;;2.90;99.90;;;;;;4980985;28;20235;-79
2022/01/15 08:18:24;;;;;;;61.47;26.73;;;2.90;99.90;;;;;;4990755;28;20117;-78
2022/01/15 08:20:50;;;;;;;59.60;26.92;;;2.90;99.90;;;;;;4984209;28;20046;-78
2022/01/15 08:23:16;;;;;;;56.88;27.20;;;2.90;99.90;;;;;;4982624;28;20615;-78
2022/01/15 08:25:42;;;;;;;61.53;27.90;;;2.90;99.90;;;;;;4983862;28;20109;-78
2022/01/15 08:28:08;;;;;;;54.97;26.42;;;2.90;99.90;;;;;;4976905;28;20129;-78
2022/01/15 08:30:34;;;;;;;56.53;26.13;;;2.90;99.90;;;;;;4971893;28;20043;-78
2022/01/15 08:32:59;;;;;;;59.42;27.90;;;2.90;99.90;;;;;;4982852;28;20035;-78
2022/01/15 08:35:25;;;;;;;56.42;27.02;;;2.90;99.90;;;;;;4974196;28;20102;-78
2022/01/15 08:37:51;;;;;;;52.33;26.63;;;3.00;99.90;;;;;;4983186;28;20030;-77
2022/01/15 08:40:19;;;;;;;62.63;32.03;;;3.00;99.90;;;;;;4977246;28;20031;-79
2022/01/15 08:42:45;;;;;;;63.45;33.13;;;3.00;99.90;;;;;;4974983;28;20377;-79
2022/01/15 08:45:13;;;;;;;60.45;29.63;;;3.10;99.90;;;;;;4984750;28;20459;-80
2022/01/15 08:47:39;;;;;;;65.90;31.63;;;3.10;99.90;;;;;;4982678;28;20068;-78
2022/01/15 08:50:07;;;;;;;57.25;28.33;;;3.10;99.90;;;;;;4985594;28;20034;-79
2022/01/15 08:52:33;;;;;;;51.47;25.60;;;3.10;99.90;;;;;;4979708;28;20033;-79
2022/01/15 08:54:59;;;;;;;46.50;22.92;;;3.20;99.90;;;;;;4976186;28;20039;-79
2022/01/15 08:57:25;;;;;;;48.25;23.98;;;3.20;99.90;;;;;;4976213;28;20018;-79
2022/01/15 08:59:51;;;;;;;52.30;24.55;;;3.20;99.90;;;;;;4977161;28;20027;-79
2022/01/15 09:02:16;;;;;;;47.38;22.88;;;3.30;99.90;;;;;;4985640;28;20124;-79
2022/01/15 09:04:43;;;;;;;52.70;27.55;;;3.30;99.90;;;;;;4973116;28;20058;-79
2022/01/15 09:07:10;;;;;;;47.88;23.77;;;3.30;99.90;;;;;;4984783;28;20038;-79
2022/01/15 09:09:35;;;;;;;44.92;23.70;;;3.30;99.90;;;;;;4983757;28;20483;-79
2022/01/15 09:12:01;;;;;;;47.03;23.33;;;3.30;99.90;;;;;;4982436;28;20050;-79
2022/01/15 09:14:27;;;;;;;48.00;25.05;;;3.30;99.90;;;;;;4977765;28;20060;-79
2022/01/15 09:16:53;;;;;;;50.08;24.67;;;3.30;99.90;;;;;;4973289;28;20589;-80
2022/01/15 09:19:18;;;;;;;36.35;19.83;;;3.40;99.90;;;;;;4983131;28;20037;-80
2022/01/15 09:21:44;;;;;;;36.92;19.67;;;3.40;99.90;;;;;;4989282;28;20514;-80
2022/01/15 09:24:10;;;;;;;37.10;20.40;;;3.40;99.90;;;;;;4986241;28;20129;-79
2022/01/15 09:30:11;;;;;;;42.70;23.50;;;3.40;99.90;;;;;;4986047;28;20038;-80
2022/01/15 09:32:18;;;;;;;21.65;13.38;;;3.50;99.90;;;;;;4986790;28;20105;-79
2022/01/15 09:34:44;;;;;;;22.58;14.02;;;3.50;99.90;;;;;;4985450;28;20022;-79
2022/01/15 09:37:09;;;;;;;26.27;14.73;;;3.40;99.90;;;;;;4983453;28;20467;-79
2022/01/15 09:39:36;;;;;;;25.10;15.35;;;3.50;99.90;;;;;;4974288;28;20085;-77
2022/01/15 09:42:02;;;;;;;28.95;16.02;;;3.70;99.90;;;;;;4978242;28;20034;-80
2022/01/15 09:44:28;;;;;;;33.50;17.83;;;3.70;99.90;;;;;;4981446;28;20039;-79
2022/01/15 09:46:53;;;;;;;30.88;18.63;;;3.70;99.90;;;;;;4978470;28;20069;-80
2022/01/15 09:49:23;;;;;;;37.90;21.58;;;3.70;99.90;;;;;;4979198;28;20073;-80
2022/01/15 09:51:49;;;;;;;33.92;19.75;;;3.70;99.90;;;;;;4982481;28;20097;-80
2022/01/15 09:54:16;;;;;;;34.70;20.05;;;3.80;99.90;;;;;;4976066;28;20043;-81
2022/01/15 09:56:43;;;;;;;36.08;20.00;;;3.60;99.90;;;;;;4980357;28;20038;-80
2022/01/15 09:59:10;;;;;;;33.05;17.90;;;3.60;99.90;;;;;;4979878;28;20031;-80
2022/01/15 10:01:36;;;;;;;32.55;17.35;;;3.60;99.90;;;;;;4983947;28;20035;-79
2022/01/15 10:04:01;;;;;;;31.20;15.98;;;3.70;99.90;;;;;;4979701;28;20081;-79
2022/01/15 10:06:27;;;;;;;37.53;20.70;;;3.60;99.90;;;;;;4975259;28;20065;-79
2022/01/15 10:09:07;;;;;;;39.38;20.77;;;3.60;99.90;;;;;;4981989;28;20038;-79
2022/01/15 10:11:44;;;;;;;36.05;19.80;;;3.70;99.90;;;;;;4977596;28;20081;-79
2022/01/15 10:14:28;;;;;;;29.88;16.42;;;3.70;99.90;;;;;;4982647;28;20034;-79
2022/01/15 10:16:56;;;;;;;29.88;16.25;;;3.70;99.90;;;;;;4976045;28;20689;-79
2022/01/15 10:19:30;;;;;;;32.13;17.48;;;3.70;99.90;;;;;;4981910;28;20026;-79
2022/01/15 10:22:11;;;;;;;26.50;14.75;;;3.70;99.90;;;;;;4978864;28;20034;-79
2022/01/15 10:24:42;;;;;;;24.50;14.27;;;3.70;99.90;;;;;;4972448;28;20038;-79
2022/01/15 10:27:22;;;;;;;29.33;16.10;;;3.70;99.90;;;;;;4979817;28;20042;-79
2022/01/15 10:29:53;;;;;;;28.05;15.27;;;3.70;99.90;;;;;;4983165;28;20046;-79
2022/01/15 10:32:19;;;;;;;24.38;14.80;;;3.70;99.90;;;;;;4971136;28;20045;-79
2022/01/15 10:34:45;;;;;;;24.73;14.40;;;3.80;99.90;;;;;;4980915;28;20031;-79
2022/01/15 10:37:14;;;;;;;24.75;14.27;;;3.70;99.90;;;;;;4981599;28;20022;-78
2022/01/15 10:39:56;;;;;;;23.58;14.35;;;3.80;99.90;;;;;;4976770;28;20038;-80
2022/01/15 10:42:26;;;;;;;24.27;13.87;;;3.80;99.90;;;;;;4979835;28;20093;-79
2022/01/15 10:44:53;;;;;;;24.10;13.93;;;3.80;99.90;;;;;;4980402;28;20278;-80
2022/01/15 10:47:21;;;;;;;24.08;14.10;;;3.80;99.90;;;;;;4984397;28;20125;-80
2022/01/15 10:49:47;;;;;;;20.13;13.45;;;3.80;99.90;;;;;;4984013;28;20774;-78
2022/01/15 10:52:24;;;;;;;17.45;11.57;;;3.80;99.90;;;;;;4982894;28;20073;-79
2022/01/15 10:54:52;;;;;;;15.43;10.93;;;3.80;99.90;;;;;;4985804;28;20026;-77
2022/01/15 10:57:20;;;;;;;14.93;10.23;;;3.80;99.90;;;;;;4984826;28;20101;-80
2022/01/15 11:00:02;;;;;;;16.40;11.38;;;3.80;99.90;;;;;;4977895;28;20084;-79
2022/01/15 11:02:28;;;;;;;14.55;10.80;;;3.80;99.90;;;;;;4977138;28;20148;-80
2022/01/15 11:04:54;;;;;;;16.67;11.48;;;3.80;99.90;;;;;;4986785;28;20124;-80
2022/01/15 11:07:20;;;;;;;16.58;11.05;;;3.90;99.90;;;;;;4982787;28;20075;-80
2022/01/15 11:09:50;;;;;;;17.45;11.20;;;3.80;99.90;;;;;;4972682;28;20479;-80
2022/01/15 11:12:18;;;;;;;21.52;14.02;;;3.80;99.90;;;;;;4975867;28;20037;-80
2022/01/15 11:14:43;;;;;;;25.10;15.57;;;3.90;99.90;;;;;;4980811;28;20034;-80
2022/01/15 11:17:09;;;;;;;20.98;13.38;;;3.90;99.90;;;;;;4978790;28;20037;-79
2022/01/15 11:19:36;;;;;;;25.55;17.45;;;4.00;99.90;;;;;;4971188;28;20041;-80
2022/01/15 11:22:03;;;;;;;22.75;15.10;;;4.00;99.90;;;;;;4975581;28;20045;-80
2022/01/15 11:24:29;;;;;;;33.58;21.77;;;4.00;99.90;;;;;;4985067;28;20042;-78
2022/01/15 11:26:57;;;;;;;21.88;14.45;;;4.00;99.90;;;;;;4974779;28;20027;-79
2022/01/15 11:29:24;;;;;;;20.50;13.43;;;4.00;99.90;;;;;;4975639;28;20074;-79
2022/01/15 11:32:00;;;;;;;24.10;15.70;;;4.00;99.90;;;;;;4974752;28;20608;-79
2022/01/15 11:34:27;;;;;;;21.02;13.68;;;4.00;99.90;;;;;;4975131;28;20027;-79
2022/01/15 11:36:53;;;;;;;23.35;16.48;;;3.90;99.90;;;;;;4982838;28;20554;-77
2022/01/15 11:39:30;;;;;;;26.20;20.00;;;3.90;99.90;;;;;;4975016;28;20366;-76
2022/01/15 11:41:57;;;;;;;27.48;19.33;;;3.90;99.90;;;;;;4979999;28;20168;-78
2022/01/15 11:44:29;;;;;;;20.17;14.05;;;3.90;99.90;;;;;;4978663;28;20644;-78
2022/01/15 11:46:56;;;;;;;15.95;12.07;;;3.90;99.90;;;;;;4979667;28;20034;-78
2022/01/15 11:49:41;;;;;;;14.93;10.93;;;3.90;99.90;;;;;;4976460;28;20076;-78
2022/01/15 11:52:09;;;;;;;15.98;11.05;;;3.90;99.90;;;;;;4982782;28;20035;-78
2022/01/15 11:54:36;;;;;;;14.60;10.43;;;3.90;99.90;;;;;;4980348;28;20186;-77
2022/01/15 11:57:04;;;;;;;17.38;11.52;;;3.90;99.90;;;;;;4966699;28;20499;-77
2022/01/15 11:59:29;;;;;;;18.13;12.15;;;3.90;99.90;;;;;;4977256;28;20391;-78
2022/01/15 12:02:01;;;;;;;17.23;12.15;;;3.80;99.90;;;;;;4975128;28;20018;-77
2022/01/15 12:04:33;;;;;;;15.18;11.02;;;3.80;99.90;;;;;;4974027;28;20067;-77
2022/01/15 12:07:05;;;;;;;14.83;11.03;;;3.90;99.90;;;;;;4975594;28;20038;-77
2022/01/15 12:09:31;;;;;;;16.25;11.95;;;3.90;99.90;;;;;;4983237;28;20269;-77
2022/01/15 12:11:56;;;;;;;15.43;11.10;;;3.90;99.90;;;;;;4983864;28;20059;-77
2022/01/15 12:14:48;;;;;;;17.08;11.23;;;3.90;99.90;;;;;;4970425;28;20042;-78
2022/01/15 12:17:31;;;;;;;16.17;11.25;;;3.90;99.90;;;;;;4964143;28;20174;-78
2022/01/15 12:19:58;;;;;;;15.93;11.68;;;3.90;99.90;;;;;;4973513;28;20035;-78
2022/01/15 12:22:43;;;;;;;16.48;11.70;;;3.80;99.90;;;;;;4982990;28;20034;-78
2022/01/15 12:25:30;;;;;;;15.10;11.52;;;3.80;99.90;;;;;;4978176;28;20029;-78
2022/01/15 12:28:04;;;;;;;14.25;10.50;;;3.80;99.90;;;;;;4977085;28;20045;-78
2022/01/15 12:30:42;;;;;;;12.65;10.13;;;3.90;99.90;;;;;;4965784;28;20031;-78
2022/01/15 12:33:13;;;;;;;13.23;9.55;;;3.80;99.90;;;;;;4964918;28;20042;-78
2022/01/15 12:35:40;;;;;;;11.63;9.15;;;3.80;99.90;;;;;;4970542;28;20034;-78
2022/01/15 12:38:10;;;;;;;11.88;9.65;;;3.90;99.90;;;;;;4947226;28;20460;-78
2022/01/15 12:40:39;;;;;;;13.18;9.15;;;3.90;99.90;;;;;;4954322;28;20042;-78
2022/01/15 12:43:21;;;;;;;12.25;9.57;;;3.80;99.90;;;;;;4969488;28;20027;-78
2022/01/15 12:45:50;;;;;;;15.13;11.52;;;3.80;99.90;;;;;;4969288;28;20027;-78
2022/01/15 12:48:18;;;;;;;14.52;11.27;;;3.80;99.90;;;;;;4963214;28;20041;-78
2022/01/15 12:50:52;;;;;;;17.15;13.75;;;3.80;99.90;;;;;;4980674;28;20141;-78
2022/01/15 12:53:20;;;;;;;13.65;11.40;;;3.90;99.90;;;;;;4969473;28;20085;-78
2022/01/15 12:55:47;;;;;;;12.43;10.25;;;3.90;99.90;;;;;;4960148;28;20480;-78
2022/01/15 12:58:18;;;;;;;14.07;9.65;;;3.90;99.90;;;;;;4961762;28;20022;-78
2022/01/15 13:00:45;;;;;;;12.35;10.10;;;3.90;99.90;;;;;;4966538;28;20039;-77
2022/01/15 13:03:13;;;;;;;14.48;11.38;;;3.90;99.90;;;;;;4966825;28;20031;-77
2022/01/15 13:05:42;;;;;;;15.10;11.65;;;3.90;99.90;;;;;;4967252;28;20043;-78
2022/01/15 13:08:13;;;;;;;14.40;11.23;;;3.90;99.90;;;;;;4958438;28;20045;-78